Time;durP1;ratioP1;P1;durP2;ratioP2;P2;SDS_P1;SDS_P2;PMS_P1;PMS_P2;Temp;Humidity;BMP_temperature;BMP_pressure;BME280_temperature;BME280_humidity;BME280_pressure;Samples;Min_cycle;Max_cycle;Signal;HPM_P1;HPM_P2
2022/03/20 00:01:16;;;;;;;24.03;21.53;;;6.40;58.80;;;;;;5100637;28;20255;-44
2022/03/20 00:03:42;;;;;;;22.40;20.10;;;6.40;58.80;;;;;;5098698;28;20193;-43
2022/03/20 00:06:08;;;;;;;22.93;20.43;;;6.40;58.90;;;;;;5100591;28;20406;-43
2022/03/20 00:08:34;;;;;;;23.27;20.77;;;6.40;58.90;;;;;;5099335;28;20543;-41
2022/03/20 00:11:01;;;;;;;23.80;21.20;;;6.40;59.00;;;;;;5113931;28;20426;-42
2022/03/20 00:13:27;;;;;;;23.13;20.60;;;6.40;59.00;;;;;;5118708;28;20547;-42
2022/03/20 00:15:54;;;;;;;24.47;21.87;;;6.30;59.00;;;;;;5120412;28;20502;-42
2022/03/20 00:18:23;;;;;;;22.20;19.73;;;6.30;59.00;;;;;;5119372;28;20776;-40
2022/03/20 00:20:50;;;;;;;23.50;20.93;;;6.30;59.00;;;;;;5119656;28;20513;-41
2022/03/20 00:23:17;;;;;;;22.70;20.30;;;6.30;58.90;;;;;;5118950;28;20433;-41
2022/03/20 00:25:46;;;;;;;22.00;19.67;;;6.30;58.80;;;;;;5119173;28;20426;-42
2022/03/20 00:28:14;;;;;;;22.00;19.73;;;6.30;58.80;;;;;;5119904;28;20542;-42
2022/03/20 00:30:40;;;;;;;25.20;21.70;;;6.30;58.90;;;;;;5120359;28;20407;-42
2022/03/20 00:33:06;;;;;;;23.10;20.80;;;6.20;58.90;;;;;;5119235;28;20499;-42
2022/03/20 00:35:32;;;;;;;25.60;21.33;;;6.20;58.90;;;;;;5120214;28;20461;-41
2022/03/20 00:37:57;;;;;;;24.17;21.67;;;6.20;58.90;;;;;;5119456;28;20185;-42
2022/03/20 00:40:23;;;;;;;21.97;19.63;;;6.20;58.90;;;;;;5120081;28;20892;-42
2022/03/20 00:42:49;;;;;;;22.87;20.47;;;6.20;59.00;;;;;;5118446;28;20248;-41
2022/03/20 00:45:15;;;;;;;25.33;22.60;;;6.20;59.10;;;;;;5118889;28;20184;-42
2022/03/20 00:47:40;;;;;;;23.90;21.37;;;6.20;59.20;;;;;;5118450;28;20717;-42
2022/03/20 00:50:08;;;;;;;22.47;20.17;;;6.20;59.30;;;;;;5115762;28;20187;-42
2022/03/20 00:52:34;;;;;;;26.47;22.57;;;6.20;59.30;;;;;;5117316;28;20220;-40
2022/03/20 00:55:00;;;;;;;25.77;21.87;;;6.20;59.40;;;;;;5119379;28;20512;-43
2022/03/20 00:57:26;;;;;;;25.00;22.30;;;6.20;59.40;;;;;;5118849;28;20848;-41
2022/03/20 00:59:52;;;;;;;24.30;21.40;;;6.10;59.30;;;;;;5108451;28;20446;-42
2022/03/20 01:02:17;;;;;;;23.03;20.63;;;6.10;59.30;;;;;;5099495;28;20800;-42
2022/03/20 01:04:43;;;;;;;24.57;21.97;;;6.10;59.40;;;;;;5098866;28;20535;-42
2022/03/20 01:07:09;;;;;;;26.00;23.17;;;6.10;59.60;;;;;;5096853;28;20180;-43
2022/03/20 01:09:35;;;;;;;24.97;21.97;;;6.10;59.70;;;;;;5097998;28;20177;-42
2022/03/20 01:12:01;;;;;;;26.10;22.63;;;6.10;59.80;;;;;;5097017;28;20501;-43
2022/03/20 01:14:27;;;;;;;27.23;23.27;;;6.10;60.00;;;;;;5097898;28;20212;-41
2022/03/20 01:16:54;;;;;;;25.13;21.73;;;6.00;59.80;;;;;;5101038;28;20495;-40
2022/03/20 01:19:21;;;;;;;24.07;21.47;;;6.00;59.60;;;;;;5118587;27;20438;-42
2022/03/20 01:21:46;;;;;;;26.43;23.37;;;6.00;59.70;;;;;;5115233;28;20422;-40
2022/03/20 01:24:14;;;;;;;29.03;23.67;;;6.00;60.00;;;;;;5098374;28;20423;-39
2022/03/20 01:26:40;;;;;;;27.17;24.20;;;5.90;60.20;;;;;;5098212;28;20487;-42
2022/03/20 01:29:06;;;;;;;25.83;23.13;;;5.90;60.70;;;;;;5098874;28;20478;-42
2022/03/20 01:31:35;;;;;;;26.60;23.77;;;5.90;61.40;;;;;;5097524;28;20195;-41
2022/03/20 01:34:02;;;;;;;31.57;23.87;;;5.90;61.70;;;;;;5098599;28;20181;-43
2022/03/20 01:36:28;;;;;;;25.30;22.60;;;5.90;62.90;;;;;;5097488;28;20526;-42
2022/03/20 01:38:54;;;;;;;27.43;24.33;;;5.90;62.50;;;;;;5098800;28;20462;-42
2022/03/20 01:41:20;;;;;;;27.20;23.73;;;5.80;63.10;;;;;;5098887;28;20188;-43
2022/03/20 01:43:57;;;;;;;26.27;23.57;;;5.80;62.70;;;;;;5097253;28;20848;-42
2022/03/20 01:46:23;;;;;;;25.57;22.97;;;5.80;62.90;;;;;;5098798;28;20442;-39
2022/03/20 01:48:49;;;;;;;27.17;23.50;;;5.80;63.00;;;;;;5097955;28;20473;-41
2022/03/20 01:51:16;;;;;;;27.03;23.70;;;5.80;62.80;;;;;;5098523;28;20419;-41
2022/03/20 01:53:43;;;;;;;26.00;23.20;;;5.80;62.50;;;;;;5097111;28;20430;-41
2022/03/20 01:56:08;;;;;;;26.67;23.90;;;5.70;62.20;;;;;;5098343;28;20749;-40
2022/03/20 01:58:34;;;;;;;27.73;23.60;;;5.70;62.00;;;;;;5097631;28;20442;-39
2022/03/20 02:01:02;;;;;;;27.83;23.93;;;5.70;61.90;;;;;;5098343;28;20177;-43
2022/03/20 02:03:28;;;;;;;27.33;24.20;;;5.70;61.80;;;;;;5097260;28;20492;-41
2022/03/20 02:05:55;;;;;;;25.17;22.53;;;5.70;62.10;;;;;;5098292;28;20510;-41
2022/03/20 02:08:25;;;;;;;24.67;22.07;;;5.70;62.30;;;;;;5095786;28;20478;-41
2022/03/20 02:10:54;;;;;;;27.67;24.93;;;5.60;62.60;;;;;;5097006;28;20852;-43
2022/03/20 02:13:35;;;;;;;29.00;24.27;;;5.60;63.00;;;;;;5095565;28;20451;-41
2022/03/20 02:16:01;;;;;;;28.93;24.93;;;5.60;63.50;;;;;;5097259;28;20778;-49
2022/03/20 02:18:26;;;;;;;26.57;23.83;;;5.60;63.90;;;;;;5096507;28;20474;-42
2022/03/20 02:20:53;;;;;;;26.07;23.37;;;5.60;64.20;;;;;;5097466;28;20181;-42
2022/03/20 02:23:18;;;;;;;29.60;24.47;;;5.60;64.70;;;;;;5096769;28;20224;-40
2022/03/20 02:25:48;;;;;;;25.73;23.00;;;5.60;64.90;;;;;;5097818;28;20465;-43
2022/03/20 02:28:15;;;;;;;27.97;23.90;;;5.60;65.10;;;;;;5096625;28;20228;-40
2022/03/20 02:30:41;;;;;;;26.67;23.77;;;5.60;65.40;;;;;;5098436;28;20476;-43
2022/03/20 02:33:06;;;;;;;27.90;23.63;;;5.60;65.50;;;;;;5096695;28;20557;-44
2022/03/20 02:35:33;;;;;;;25.97;23.20;;;5.50;65.40;;;;;;5097867;28;20298;-41
2022/03/20 02:37:58;;;;;;;25.67;22.90;;;5.50;65.30;;;;;;5109666;28;20192;-40
2022/03/20 02:40:24;;;;;;;26.80;23.43;;;5.50;65.30;;;;;;5116542;28;20462;-43
2022/03/20 02:42:53;;;;;;;29.13;25.37;;;5.50;65.50;;;;;;5116912;28;20218;-42
2022/03/20 02:45:21;;;;;;;27.00;24.20;;;5.50;65.70;;;;;;5118169;28;20434;-42
2022/03/20 02:47:48;;;;;;;26.67;23.87;;;5.50;65.80;;;;;;5117801;28;20779;-43
2022/03/20 02:50:17;;;;;;;28.07;23.27;;;5.50;66.10;;;;;;5117219;28;20406;-41
2022/03/20 02:53:01;;;;;;;28.50;24.67;;;5.50;66.20;;;;;;5114066;28;20434;-43
2022/03/20 02:55:35;;;;;;;27.90;24.07;;;5.50;66.30;;;;;;5096974;28;20468;-43
2022/03/20 02:58:02;;;;;;;26.80;23.97;;;5.50;66.70;;;;;;5096195;28;20438;-40
2022/03/20 03:00:31;;;;;;;27.53;24.60;;;5.50;67.00;;;;;;5097839;28;20848;-41
2022/03/20 03:02:59;;;;;;;28.97;25.97;;;5.50;67.20;;;;;;5093866;28;20446;-42
2022/03/20 03:05:29;;;;;;;27.50;24.60;;;5.50;67.40;;;;;;5095911;28;20415;-43
2022/03/20 03:10:55;;;;;;;30.00;25.83;;;5.50;67.50;;;;;;5096185;28;20399;-42
2022/03/20 03:13:34;;;;;;;27.00;24.10;;;5.50;67.50;;;;;;5096423;28;20526;-43
2022/03/20 03:16:02;;;;;;;27.03;24.00;;;5.50;67.50;;;;;;5096927;28;20422;-42
2022/03/20 03:18:28;;;;;;;26.13;23.43;;;5.50;67.40;;;;;;5096641;28;20820;-41
2022/03/20 03:20:53;;;;;;;25.57;22.80;;;5.50;67.60;;;;;;5118462;28;20470;-42
2022/03/20 03:23:24;;;;;;;24.93;22.33;;;5.50;67.90;;;;;;5118235;28;20445;-42
2022/03/20 03:25:51;;;;;;;30.60;24.37;;;5.50;67.90;;;;;;5103328;28;20707;-41
2022/03/20 03:28:16;;;;;;;27.33;22.77;;;5.50;68.10;;;;;;5106959;28;20474;-43
2022/03/20 03:30:44;;;;;;;24.77;22.20;;;5.50;68.20;;;;;;5105014;28;20419;-42
2022/03/20 03:33:11;;;;;;;26.80;23.90;;;5.50;68.40;;;;;;5100286;28;20208;-43
2022/03/20 03:35:46;;;;;;;26.43;23.60;;;5.50;68.50;;;;;;5101022;28;20565;-42
2022/03/20 03:38:34;;;;;;;26.17;23.07;;;5.50;68.70;;;;;;5100795;28;20454;-43
2022/03/20 03:41:00;;;;;;;27.50;24.40;;;5.50;68.40;;;;;;5116990;28;20843;-40
2022/03/20 03:43:26;;;;;;;26.33;23.63;;;5.50;68.30;;;;;;5113476;28;20449;-43
2022/03/20 03:45:56;;;;;;;27.30;23.97;;;5.50;68.20;;;;;;5103037;28;20430;-43
2022/03/20 03:48:22;;;;;;;26.03;22.80;;;5.50;68.30;;;;;;5100251;28;21053;-43
2022/03/20 03:50:52;;;;;;;24.73;22.13;;;5.50;68.40;;;;;;5116602;28;20441;-42
2022/03/20 03:53:17;;;;;;;27.67;24.53;;;5.50;68.40;;;;;;5122121;28;20281;-43
2022/03/20 03:55:43;;;;;;;24.27;21.77;;;5.50;68.30;;;;;;5121826;28;20457;-42
2022/03/20 03:58:10;;;;;;;28.20;24.30;;;5.50;68.00;;;;;;5121756;28;20546;-43
2022/03/20 04:00:36;;;;;;;24.70;21.97;;;5.40;67.40;;;;;;5115943;27;20425;-42
2022/03/20 04:03:02;;;;;;;25.07;22.37;;;5.40;67.40;;;;;;5115397;28;20721;-43
2022/03/20 04:05:29;;;;;;;28.67;22.77;;;5.40;65.70;;;;;;5116738;28;20715;-40
2022/03/20 04:07:55;;;;;;;25.87;22.37;;;5.40;64.80;;;;;;5100606;28;20443;-40
2022/03/20 04:10:21;;;;;;;25.37;22.40;;;5.40;64.00;;;;;;5105685;28;20505;-41
2022/03/20 04:12:47;;;;;;;24.17;21.60;;;5.40;63.20;;;;;;5113236;28;20864;-43
2022/03/20 04:15:21;;;;;;;25.90;23.10;;;5.40;62.50;;;;;;5120764;28;20410;-43
2022/03/20 04:17:47;;;;;;;25.10;21.40;;;5.40;61.70;;;;;;5100893;28;20211;-43
2022/03/20 04:20:13;;;;;;;27.00;21.83;;;5.40;61.40;;;;;;5100807;28;20421;-43
2022/03/20 04:23:42;;;;;;;25.70;22.00;;;5.40;61.50;;;;;;5099127;28;20607;-41
2022/03/20 04:25:28;;;;;;;25.13;20.73;;;5.40;61.50;;;;;;5099811;28;20221;-42
2022/03/20 04:27:56;;;;;;;22.27;19.67;;;5.40;61.80;;;;;;5099376;28;20752;-43
2022/03/20 04:30:26;;;;;;;23.90;21.40;;;5.40;62.00;;;;;;5100099;28;20717;-43
2022/03/20 04:32:55;;;;;;;23.93;21.30;;;5.40;62.30;;;;;;5098172;28;20516;-39
2022/03/20 04:35:23;;;;;;;26.10;22.43;;;5.40;62.70;;;;;;5099508;28;20471;-43
2022/03/20 04:37:50;;;;;;;26.70;21.83;;;5.50;63.40;;;;;;5113577;28;20465;-42
2022/03/20 04:40:15;;;;;;;23.77;21.27;;;5.50;63.50;;;;;;5120581;28;20682;-42
2022/03/20 04:42:41;;;;;;;28.17;23.40;;;5.50;63.00;;;;;;5107640;28;20461;-43
2022/03/20 04:45:07;;;;;;;25.40;22.40;;;5.50;62.40;;;;;;5100213;28;20191;-43
2022/03/20 04:58:29;;;;;;;27.03;23.40;;;5.60;61.00;;;;;;5098447;28;20539;-43
2022/03/20 05:00:55;;;;;;;27.57;23.60;;;5.60;60.60;;;;;;5099817;28;20513;-43
2022/03/20 05:03:21;;;;;;;29.53;23.73;;;5.60;60.40;;;;;;5110711;28;20547;-48
2022/03/20 05:05:47;;;;;;;26.93;22.80;;;5.60;60.10;;;;;;5119895;27;20425;-48
2022/03/20 05:08:13;;;;;;;26.83;24.00;;;5.60;60.00;;;;;;5117386;28;20433;-48
2022/03/20 05:13:23;;;;;;;29.13;24.70;;;5.60;59.90;;;;;;5117525;28;20436;-48
2022/03/20 05:15:49;;;;;;;30.07;25.57;;;5.70;59.90;;;;;;5108315;28;20430;-48
2022/03/20 05:18:15;;;;;;;29.73;25.37;;;5.70;60.00;;;;;;5096986;28;20527;-48
2022/03/20 05:20:43;;;;;;;29.67;26.50;;;5.70;60.00;;;;;;5098463;28;20415;-48
2022/03/20 05:23:09;;;;;;;27.67;24.70;;;5.70;60.10;;;;;;5097966;28;20539;-48
2022/03/20 05:25:36;;;;;;;29.93;26.30;;;5.70;60.30;;;;;;5098291;28;20414;-48
2022/03/20 05:28:02;;;;;;;30.90;27.13;;;5.70;60.50;;;;;;5097838;28;20430;-48
2022/03/20 05:30:28;;;;;;;32.67;27.07;;;5.70;60.70;;;;;;5098039;28;20458;-48
2022/03/20 05:32:54;;;;;;;26.87;24.00;;;5.70;60.90;;;;;;5099084;28;20411;-48
2022/03/20 05:35:20;;;;;;;29.33;25.67;;;5.70;61.10;;;;;;5098590;28;20236;-48
2022/03/20 05:37:46;;;;;;;30.30;25.27;;;5.70;61.20;;;;;;5097801;28;20542;-48
2022/03/20 05:40:13;;;;;;;29.87;26.43;;;5.80;61.30;;;;;;5098120;28;20185;-48
2022/03/20 05:42:39;;;;;;;28.50;24.47;;;5.80;61.20;;;;;;5097734;28;20971;-48
2022/03/20 05:45:05;;;;;;;28.00;25.00;;;5.80;61.30;;;;;;5098535;28;20763;-48
2022/03/20 05:47:31;;;;;;;29.10;25.90;;;5.80;61.30;;;;;;5096729;28;20242;-48
2022/03/20 05:50:01;;;;;;;29.87;25.07;;;5.90;61.50;;;;;;5096966;28;20438;-48
2022/03/20 05:52:31;;;;;;;29.50;25.60;;;5.90;61.50;;;;;;5096510;28;20441;-48
2022/03/20 05:54:57;;;;;;;32.37;26.30;;;5.90;61.30;;;;;;5097348;28;20478;-48
2022/03/20 05:58:13;;;;;;;29.13;25.80;;;6.00;61.20;;;;;;5096106;28;20741;-48
2022/03/20 06:00:16;;;;;;;32.77;27.63;;;6.10;61.20;;;;;;5084767;28;20419;-48
2022/03/20 06:02:45;;;;;;;30.80;26.07;;;6.10;61.00;;;;;;5094681;28;20537;-48
2022/03/20 06:05:12;;;;;;;33.03;27.00;;;6.20;60.70;;;;;;5097506;28;20445;-48
2022/03/20 06:07:46;;;;;;;31.07;25.60;;;6.30;60.40;;;;;;5095204;28;20431;-48
2022/03/20 06:10:16;;;;;;;30.30;25.70;;;6.30;60.30;;;;;;5095173;28;20429;-48
2022/03/20 06:12:43;;;;;;;27.77;24.60;;;6.30;60.00;;;;;;5096094;28;20935;-47
2022/03/20 06:15:10;;;;;;;29.83;26.13;;;6.40;59.90;;;;;;5097239;28;20955;-48
2022/03/20 06:17:47;;;;;;;29.90;26.10;;;6.50;59.80;;;;;;5095737;28;20470;-48
2022/03/20 06:20:15;;;;;;;29.73;26.00;;;6.50;59.60;;;;;;5113680;28;20418;-48
2022/03/20 06:22:41;;;;;;;30.33;26.80;;;6.60;59.60;;;;;;5115826;28;20496;-48
2022/03/20 06:25:11;;;;;;;28.97;25.87;;;6.60;59.50;;;;;;5101724;28;20880;-40
2022/03/20 06:27:48;;;;;;;32.90;27.00;;;6.70;59.30;;;;;;5105749;28;20906;-39
2022/03/20 06:30:14;;;;;;;31.23;27.83;;;6.80;59.30;;;;;;5117537;28;20409;-40
2022/03/20 06:32:44;;;;;;;28.93;25.83;;;6.90;59.00;;;;;;5117038;28;20478;-41
2022/03/20 06:35:11;;;;;;;30.00;26.30;;;7.00;58.90;;;;;;5117514;28;20486;-41
2022/03/20 06:37:39;;;;;;;30.00;25.73;;;7.10;58.80;;;;;;5117697;28;20749;-40
2022/03/20 06:40:07;;;;;;;33.20;26.77;;;7.20;58.60;;;;;;5118516;28;20831;-41
2022/03/20 06:42:34;;;;;;;29.27;25.93;;;7.30;58.50;;;;;;5098391;28;20851;-41
2022/03/20 06:45:00;;;;;;;28.17;24.30;;;7.50;58.40;;;;;;5097847;28;20494;-40
2022/03/20 06:47:27;;;;;;;29.13;25.03;;;7.80;58.20;;;;;;5108601;28;20529;-41
2022/03/20 06:49:54;;;;;;;28.67;25.63;;;8.10;57.90;;;;;;5117155;28;20512;-43
2022/03/20 06:52:29;;;;;;;28.80;25.70;;;8.40;57.50;;;;;;5102164;28;20435;-40
2022/03/20 06:54:59;;;;;;;28.93;25.83;;;8.70;57.00;;;;;;5098022;28;20438;-41
2022/03/20 06:57:26;;;;;;;31.30;26.10;;;9.00;56.50;;;;;;5096331;28;20427;-41
2022/03/20 06:59:52;;;;;;;30.33;27.17;;;9.30;56.00;;;;;;5101559;28;20441;-42
2022/03/20 07:02:19;;;;;;;29.97;26.57;;;9.60;55.50;;;;;;5099956;28;20426;-41
2022/03/20 07:04:48;;;;;;;29.17;25.80;;;9.80;54.90;;;;;;5099740;28;20414;-41
2022/03/20 07:07:15;;;;;;;30.07;26.97;;;10.10;53.60;;;;;;5098150;28;20427;-40
2022/03/20 07:09:41;;;;;;;29.90;26.80;;;10.40;52.80;;;;;;5099882;28;21006;-42
2022/03/20 07:12:08;;;;;;;29.80;26.60;;;10.70;52.30;;;;;;5098864;28;20763;-43
2022/03/20 07:14:34;;;;;;;31.63;27.90;;;11.00;51.60;;;;;;5105241;28;20176;-41
2022/03/20 07:17:02;;;;;;;32.60;28.83;;;11.40;50.80;;;;;;5120327;28;20862;-41
2022/03/20 07:19:28;;;;;;;29.93;26.80;;;11.70;50.20;;;;;;5098936;28;20469;-41
2022/03/20 07:21:54;;;;;;;27.83;25.03;;;12.10;49.80;;;;;;5116630;28;20434;-41
2022/03/20 07:24:20;;;;;;;30.73;26.60;;;12.40;49.10;;;;;;5099926;28;20434;-42
2022/03/20 07:29:30;;;;;;;29.93;26.70;;;12.90;47.60;;;;;;5098197;28;20632;-41
2022/03/20 07:32:01;;;;;;;30.13;26.90;;;13.20;46.50;;;;;;5099917;28;20736;-42
2022/03/20 07:34:27;;;;;;;29.43;26.37;;;13.50;46.00;;;;;;5098806;28;20189;-44
2022/03/20 07:36:53;;;;;;;29.83;26.63;;;14.10;45.10;;;;;;5100373;28;20727;-43
2022/03/20 07:39:19;;;;;;;30.87;27.53;;;14.80;44.20;;;;;;5107901;28;20280;-40
2022/03/20 07:41:45;;;;;;;28.90;26.23;;;15.60;43.10;;;;;;5118690;28;20414;-45
2022/03/20 07:44:10;;;;;;;28.37;25.47;;;16.30;41.90;;;;;;5099065;28;20185;-44
2022/03/20 07:46:36;;;;;;;31.57;28.50;;;16.90;40.70;;;;;;5100451;28;20181;-44
2022/03/20 07:49:04;;;;;;;28.50;25.80;;;17.30;39.20;;;;;;5102017;28;20194;-42
2022/03/20 07:51:30;;;;;;;28.47;25.40;;;17.70;38.60;;;;;;5119835;28;20429;-43
2022/03/20 07:53:57;;;;;;;26.77;24.23;;;18.20;38.00;;;;;;5118116;28;20795;-43
2022/03/20 07:56:23;;;;;;;29.13;26.33;;;18.80;37.50;;;;;;5098450;28;20828;-42
2022/03/20 07:58:51;;;;;;;27.20;24.67;;;19.40;36.60;;;;;;5099211;28;20489;-41
2022/03/20 08:01:17;;;;;;;30.33;27.30;;;20.00;35.50;;;;;;5105585;28;20441;-41
2022/03/20 08:03:43;;;;;;;30.40;27.60;;;20.20;34.50;;;;;;5119969;28;20716;-43
2022/03/20 08:06:09;;;;;;;29.60;26.87;;;20.00;33.90;;;;;;5103201;28;20181;-47
2022/03/20 08:08:39;;;;;;;28.77;26.00;;;19.30;33.90;;;;;;5098536;28;20560;-47
2022/03/20 08:11:05;;;;;;;28.40;25.70;;;18.70;34.20;;;;;;5097015;28;20435;-43
2022/03/20 08:13:31;;;;;;;27.97;25.30;;;18.20;34.50;;;;;;5097665;28;20535;-42
2022/03/20 08:16:04;;;;;;;27.20;24.80;;;18.20;35.00;;;;;;5098911;28;20521;-41
2022/03/20 08:18:31;;;;;;;27.97;25.40;;;18.60;34.70;;;;;;5098488;28;20298;-41
2022/03/20 08:20:56;;;;;;;29.03;26.43;;;19.60;34.50;;;;;;5098683;28;20730;-42
2022/03/20 08:23:22;;;;;;;27.40;25.03;;;20.50;33.70;;;;;;5098559;28;20466;-45
2022/03/20 08:25:48;;;;;;;25.93;23.67;;;21.50;33.00;;;;;;5099133;28;20267;-46
2022/03/20 08:28:13;;;;;;;25.27;23.17;;;22.40;32.30;;;;;;5098691;28;20211;-43
2022/03/20 08:30:42;;;;;;;28.77;26.30;;;23.30;31.50;;;;;;5118382;28;20532;-42
2022/03/20 08:33:08;;;;;;;29.30;26.60;;;24.10;30.80;;;;;;5118860;28;20269;-41
2022/03/20 08:35:34;;;;;;;26.53;24.30;;;24.90;30.00;;;;;;5116022;28;20553;-43
2022/03/20 08:37:59;;;;;;;27.30;24.67;;;25.50;29.50;;;;;;5099057;28;20219;-42
2022/03/20 08:40:25;;;;;;;28.10;25.80;;;26.10;29.10;;;;;;5097612;28;20174;-42
2022/03/20 08:42:53;;;;;;;27.50;25.17;;;26.90;28.40;;;;;;5096230;28;20430;-42
2022/03/20 08:45:20;;;;;;;27.03;24.77;;;27.30;27.60;;;;;;5097122;28;20479;-41
2022/03/20 08:47:46;;;;;;;26.40;24.20;;;27.50;27.30;;;;;;5095424;28;20868;-42
2022/03/20 08:50:13;;;;;;;25.00;22.87;;;27.80;27.20;;;;;;5096598;28;20485;-41
2022/03/20 08:52:39;;;;;;;25.97;23.87;;;28.40;27.20;;;;;;5096376;28;20176;-42
2022/03/20 08:55:10;;;;;;;27.10;24.80;;;28.90;26.90;;;;;;5097353;28;20417;-42
2022/03/20 08:57:38;;;;;;;24.70;22.80;;;29.60;26.30;;;;;;5097901;28;20558;-42
2022/03/20 09:00:04;;;;;;;27.00;24.80;;;29.90;25.70;;;;;;5097406;28;20419;-44
2022/03/20 09:02:30;;;;;;;27.03;24.47;;;29.80;25.00;;;;;;5107494;28;20424;-41
2022/03/20 09:04:55;;;;;;;24.53;22.50;;;29.30;25.00;;;;;;5118257;28;20422;-43
2022/03/20 09:07:21;;;;;;;25.17;23.13;;;28.60;25.20;;;;;;5109233;28;20600;-43
2022/03/20 09:09:46;;;;;;;25.67;23.57;;;27.80;25.50;;;;;;5096083;28;20743;-44
2022/03/20 09:12:12;;;;;;;23.30;21.47;;;27.20;25.80;;;;;;5102917;28;20175;-41
2022/03/20 09:14:38;;;;;;;24.43;22.33;;;26.70;26.20;;;;;;5117248;28;20257;-47
2022/03/20 09:19:48;;;;;;;25.60;23.40;;;26.30;26.10;;;;;;5096015;28;20245;-45
2022/03/20 09:22:16;;;;;;;25.07;22.97;;;26.30;25.70;;;;;;5097230;28;20696;-42
2022/03/20 09:24:42;;;;;;;26.20;23.80;;;25.70;25.60;;;;;;5103497;28;20171;-41
2022/03/20 09:27:07;;;;;;;25.40;23.20;;;24.70;26.00;;;;;;5116236;28;20419;-41
2022/03/20 09:29:33;;;;;;;26.20;23.90;;;23.70;26.60;;;;;;5096543;28;20175;-41
2022/03/20 09:31:58;;;;;;;26.50;23.97;;;22.80;27.10;;;;;;5098667;28;20443;-43
2022/03/20 09:34:24;;;;;;;26.70;24.30;;;22.10;27.60;;;;;;5096892;28;20203;-42
2022/03/20 09:36:50;;;;;;;27.00;24.60;;;21.40;28.20;;;;;;5096804;28;20272;-43
2022/03/20 09:39:15;;;;;;;25.47;23.20;;;20.80;28.60;;;;;;5098256;28;20712;-43
2022/03/20 09:41:41;;;;;;;26.53;24.07;;;20.40;29.10;;;;;;5097858;28;20596;-43
2022/03/20 09:44:08;;;;;;;26.83;24.27;;;20.10;29.60;;;;;;5110178;28;20260;-43
2022/03/20 09:46:36;;;;;;;27.40;24.70;;;19.70;29.80;;;;;;5116922;28;20491;-41
2022/03/20 09:49:05;;;;;;;27.33;24.63;;;19.40;30.00;;;;;;5106995;28;20469;-45
2022/03/20 09:51:32;;;;;;;27.50;24.67;;;19.10;30.20;;;;;;5097587;28;20433;-44
2022/03/20 09:53:58;;;;;;;25.80;23.60;;;18.80;30.60;;;;;;5097028;28;20415;-41
2022/03/20 09:56:23;;;;;;;26.10;23.70;;;18.60;31.00;;;;;;5096666;28;20433;-41
2022/03/20 09:58:49;;;;;;;28.30;25.50;;;18.30;31.10;;;;;;5100678;28;20204;-43
2022/03/20 10:01:15;;;;;;;26.97;24.33;;;18.10;31.10;;;;;;5115440;28;20610;-42
2022/03/20 10:03:41;;;;;;;26.57;24.07;;;18.10;31.30;;;;;;5115790;28;20424;-42
2022/03/20 10:06:17;;;;;;;26.40;23.90;;;18.30;31.40;;;;;;5114932;28;20423;-44
2022/03/20 10:08:56;;;;;;;26.00;23.53;;;18.50;31.40;;;;;;5112793;27;20426;-43
2022/03/20 10:11:22;;;;;;;25.93;23.43;;;18.80;31.50;;;;;;5094610;28;20430;-42
2022/03/20 10:14:19;;;;;;;29.03;25.80;;;19.00;31.40;;;;;;5095209;28;20444;-43
2022/03/20 10:16:53;;;;;;;26.50;24.10;;;19.30;31.50;;;;;;5095434;28;20545;-43
2022/03/20 10:19:25;;;;;;;26.90;24.20;;;19.50;31.50;;;;;;5095710;28;20818;-41
2022/03/20 10:21:53;;;;;;;26.33;23.83;;;19.50;31.60;;;;;;5095340;28;20432;-42
2022/03/20 10:24:21;;;;;;;26.60;24.13;;;19.60;31.80;;;;;;5096868;28;20415;-43
2022/03/20 10:27:00;;;;;;;25.50;22.97;;;19.70;32.00;;;;;;5095310;28;20807;-43
2022/03/20 10:29:26;;;;;;;29.83;27.03;;;19.70;32.10;;;;;;5109447;28;20411;-43
2022/03/20 10:31:54;;;;;;;27.23;24.43;;;19.80;32.10;;;;;;5112670;28;20516;-44
2022/03/20 10:34:21;;;;;;;26.93;24.33;;;19.90;32.30;;;;;;5105717;28;20859;-44
2022/03/20 10:36:49;;;;;;;25.10;22.63;;;20.10;32.20;;;;;;5115496;28;20505;-44
2022/03/20 10:39:19;;;;;;;24.00;21.70;;;20.40;32.30;;;;;;5109256;28;20759;-42
2022/03/20 10:41:52;;;;;;;19.10;17.30;;;20.70;32.10;;;;;;5094814;28;20418;-42
2022/03/20 10:44:24;;;;;;;16.47;14.80;;;21.20;34.40;;;;;;5094414;28;20432;-40
2022/03/20 10:47:09;;;;;;;13.23;12.00;;;21.60;36.00;;;;;;5093719;28;20514;-42
2022/03/20 10:49:35;;;;;;;16.10;13.70;;;22.50;36.10;;;;;;5093691;28;20436;-40
2022/03/20 10:52:03;;;;;;;16.80;14.40;;;23.50;35.00;;;;;;5113488;28;20771;-41
2022/03/20 10:54:58;;;;;;;18.50;16.80;;;24.00;33.70;;;;;;5117102;28;20176;-42
2022/03/20 10:57:34;;;;;;;17.83;16.20;;;25.40;32.60;;;;;;5083166;28;20436;-41
2022/03/20 11:00:08;;;;;;;19.40;17.50;;;27.50;30.60;;;;;;5096351;28;20440;-42
2022/03/20 11:02:37;;;;;;;19.30;17.60;;;29.40;28.30;;;;;;5106173;28;20454;-40
2022/03/20 11:05:03;;;;;;;15.43;14.13;;;30.60;27.70;;;;;;5115108;28;20458;-43
2022/03/20 11:07:29;;;;;;;16.53;15.00;;;31.50;27.80;;;;;;5114744;28;20438;-43
2022/03/20 11:09:56;;;;;;;16.60;15.03;;;32.40;27.60;;;;;;5094924;28;20179;-42
2022/03/20 11:12:30;;;;;;;15.53;14.23;;;32.50;27.30;;;;;;5098665;28;20209;-42
2022/03/20 11:15:06;;;;;;;13.20;11.33;;;32.90;27.10;;;;;;5115535;28;20660;-41
2022/03/20 11:17:46;;;;;;;13.70;12.43;;;33.30;27.20;;;;;;5114666;28;20410;-42
2022/03/20 11:20:14;;;;;;;13.60;12.20;;;32.90;27.30;;;;;;5110651;28;20427;-41
2022/03/20 11:23:04;;;;;;;13.00;11.77;;;32.60;26.90;;;;;;5096629;28;20400;-41
2022/03/20 11:25:31;;;;;;;13.10;12.00;;;31.90;27.30;;;;;;5092605;28;20426;-41
2022/03/20 11:28:01;;;;;;;13.43;12.33;;;32.10;27.00;;;;;;5095690;28;20451;-42
2022/03/20 11:30:33;;;;;;;11.50;10.40;;;32.30;26.70;;;;;;5101595;28;20406;-42
2022/03/20 11:33:02;;;;;;;11.13;10.23;;;33.20;26.90;;;;;;5106493;28;20479;-41
2022/03/20 11:35:32;;;;;;;10.97;9.97;;;34.50;26.80;;;;;;5105048;28;20791;-42
2022/03/20 11:38:14;;;;;;;11.70;10.70;;;35.70;25.40;;;;;;5104526;28;20799;-40
2022/03/20 11:40:41;;;;;;;10.70;9.70;;;37.00;24.30;;;;;;5101451;28;20441;-42
2022/03/20 11:43:19;;;;;;;9.50;8.57;;;38.00;24.20;;;;;;5106385;28;20422;-42
2022/03/20 11:46:42;;;;;;;9.43;8.73;;;38.80;23.40;;;;;;5108700;28;20438;-41
2022/03/20 11:49:14;;;;;;;10.63;9.63;;;39.40;22.60;;;;;;5102265;28;20481;-41
2022/03/20 11:51:59;;;;;;;8.70;8.00;;;40.20;22.70;;;;;;5097265;28;20427;-41
2022/03/20 11:54:41;;;;;;;9.70;9.00;;;40.70;22.90;;;;;;5098847;28;20708;-43
2022/03/20 11:57:26;;;;;;;10.30;9.40;;;40.50;22.50;;;;;;5101609;28;20418;-42
2022/03/20 12:00:18;;;;;;;9.50;8.80;;;39.50;22.40;;;;;;5099464;28;20521;-43
2022/03/20 12:02:59;;;;;;;9.60;8.80;;;37.80;23.00;;;;;;5099340;28;20432;-40
2022/03/20 12:05:52;;;;;;;10.73;9.63;;;35.70;23.90;;;;;;5097743;28;20436;-44
2022/03/20 12:08:38;;;;;;;12.13;11.13;;;34.50;23.40;;;;;;5100167;28;20462;-42
2022/03/20 12:11:22;;;;;;;10.73;9.73;;;33.60;24.00;;;;;;5099921;28;20425;-44
2022/03/20 12:13:49;;;;;;;9.50;8.70;;;33.00;23.50;;;;;;5098247;28;20444;-40
2022/03/20 12:16:51;;;;;;;10.13;9.33;;;33.00;24.50;;;;;;5099482;28;20420;-40
2022/03/20 12:19:26;;;;;;;9.00;8.30;;;33.40;25.00;;;;;;5016950;28;20447;-40
2022/03/20 12:21:59;;;;;;;9.10;8.20;;;34.60;24.80;;;;;;5088001;28;20743;-44
2022/03/20 12:24:39;;;;;;;9.87;8.93;;;36.20;24.50;;;;;;5098705;28;20420;-43
2022/03/20 12:27:20;;;;;;;9.70;8.90;;;37.80;23.90;;;;;;5098443;28;20431;-41
2022/03/20 12:29:53;;;;;;;10.37;9.47;;;39.00;22.90;;;;;;5096971;28;20486;-41
2022/03/20 12:32:19;;;;;;;9.90;8.87;;;39.90;22.40;;;;;;5097527;28;20499;-41
2022/03/20 12:35:08;;;;;;;9.10;8.40;;;40.10;21.90;;;;;;5096764;28;20556;-43
2022/03/20 12:37:39;;;;;;;9.70;8.43;;;40.70;21.90;;;;;;5116331;28;20420;-45
2022/03/20 12:40:33;;;;;;;9.20;8.40;;;41.20;22.00;;;;;;5097678;28;20836;-43
2022/03/20 12:43:10;;;;;;;10.00;9.20;;;39.80;21.90;;;;;;5098520;28;20430;-45
2022/03/20 12:45:39;;;;;;;9.10;8.27;;;38.90;22.20;;;;;;5097717;28;20808;-43
2022/03/20 12:48:13;;;;;;;8.93;8.23;;;39.50;22.40;;;;;;5098161;28;20480;-40
2022/03/20 12:50:45;;;;;;;8.80;8.10;;;40.30;22.50;;;;;;5098278;28;20498;-41
2022/03/20 12:53:21;;;;;;;11.70;10.77;;;41.50;22.20;;;;;;5097797;28;20444;-43
2022/03/20 12:55:56;;;;;;;10.80;9.90;;;42.20;21.00;;;;;;5097211;28;20915;-43
2022/03/20 12:58:22;;;;;;;11.50;10.50;;;42.90;21.00;;;;;;5097400;28;20430;-45
2022/03/20 13:00:48;;;;;;;10.37;9.67;;;43.50;20.30;;;;;;5098123;28;20429;-43
2022/03/20 13:03:16;;;;;;;10.43;9.30;;;43.30;20.60;;;;;;5098082;28;20425;-44
2022/03/20 13:05:57;;;;;;;10.03;9.23;;;42.40;20.50;;;;;;5098791;28;20705;-45